createdAt,value
2023-03-30T00:01:32.639Z,100790.16
2023-03-30T00:03:34.261Z,100775.25
2023-03-30T00:05:36.366Z,100774.34
2023-03-30T00:07:38.262Z,100770.84
2023-03-30T00:09:42.405Z,100765.59
2023-03-30T00:11:45.563Z,100760.34
2023-03-30T00:13:47.046Z,100749.78
2023-03-30T00:15:49.381Z,100747.16
2023-03-30T00:17:55.057Z,100747.16
2023-03-30T00:19:56.890Z,100748.06
2023-03-30T00:21:58.431Z,100739.28
2023-03-30T00:23:59.896Z,100748.97
2023-03-30T00:26:01.500Z,100744.56
2023-03-30T00:28:03.129Z,100734.06
2023-03-30T00:30:07.103Z,100734.94
2023-03-30T00:32:08.565Z,100740.19
2023-03-30T00:34:10.099Z,100731.44
2023-03-30T00:36:11.659Z,100740.19
2023-03-30T00:38:13.163Z,100727.03
2023-03-30T00:40:17.706Z,100727.88
2023-03-30T00:42:21.748Z,100725.28
2023-03-30T00:45:00.865Z,100725.28
2023-03-30T00:47:02.396Z,100711.25
2023-03-30T00:49:08.978Z,100697.16
2023-03-30T00:51:12.284Z,100698.97
2023-03-30T00:53:18.339Z,100689.38
2023-03-30T00:55:22.373Z,100683.25
2023-03-30T00:57:26.847Z,100685.06
2023-03-30T00:59:28.355Z,100690.41
2023-03-30T01:01:31.039Z,100687.81
2023-03-30T01:03:43.751Z,100681.69
2023-03-30T01:05:46.216Z,100666.81
2023-03-30T01:07:49.842Z,100672.09
2023-03-30T01:09:53.031Z,100673.00
2023-03-30T01:11:54.585Z,100663.38
2023-03-30T01:14:03.249Z,100652.78
2023-03-30T01:16:43.351Z,100657.22
2023-03-30T01:19:07.452Z,100641.50
2023-03-30T01:21:29.888Z,100630.19
2023-03-30T01:23:35.348Z,100623.22
2023-03-30T01:26:02.972Z,100618.91
2023-03-30T01:28:22.957Z,100620.75
2023-03-30T01:30:52.637Z,100613.78
2023-03-30T01:33:14.354Z,100610.38
2023-03-30T01:35:46.208Z,100604.31
2023-03-30T01:38:26.023Z,100599.09
2023-03-30T01:40:50.580Z,100603.59
2023-03-30T01:43:05.494Z,100589.59
2023-03-30T01:45:21.055Z,100590.47
2023-03-30T01:47:30.005Z,100589.56
2023-03-30T01:49:59.169Z,100582.56
2023-03-30T01:52:03.578Z,100579.06
2023-03-30T01:54:12.632Z,100570.25
2023-03-30T01:56:20.877Z,100557.09
2023-03-30T01:58:48.230Z,100567.63
2023-03-30T02:00:51.399Z,100553.59
2023-03-30T02:02:59.268Z,100550.94
2023-03-30T02:05:05.144Z,100553.56
2023-03-30T02:07:11.273Z,100548.28
2023-03-30T02:09:17.130Z,100550.94
2023-03-30T02:11:18.618Z,100546.53
2023-03-30T02:13:21.572Z,100542.13
2023-03-30T02:15:26.420Z,100536.84
2023-03-30T02:17:30.363Z,100526.31
2023-03-30T02:19:33.930Z,100535.09
2023-03-30T02:21:35.674Z,100529.78
2023-03-30T02:23:43.997Z,100519.25
2023-03-30T02:25:45.944Z,100513.13
2023-03-30T02:27:48.078Z,100514.84
2023-03-30T02:29:49.666Z,100506.03
2023-03-30T02:31:54.461Z,100506.91
2023-03-30T02:33:59.162Z,100512.16
2023-03-30T02:36:15.911Z,100504.25
2023-03-30T02:38:49.820Z,100487.59
2023-03-30T02:41:00.265Z,100495.50
2023-03-30T02:43:36.697Z,100492.88
2023-03-30T02:46:07.606Z,100498.19
2023-03-30T02:48:31.092Z,100500.81
2023-03-30T02:50:34.791Z,100497.34
2023-03-30T02:52:59.172Z,100495.53
2023-03-30T02:55:13.748Z,100493.81
2023-03-30T02:57:28.904Z,100494.72
2023-03-30T02:59:39.513Z,100490.38
2023-03-30T03:01:48.708Z,100493.00
2023-03-30T03:03:52.706Z,100491.28
2023-03-30T03:05:56.050Z,100487.81
2023-03-30T03:07:57.655Z,100487.00
2023-03-30T03:10:00.181Z,100494.94
2023-03-30T03:12:01.796Z,100490.63
2023-03-30T03:14:03.532Z,100487.19
2023-03-30T03:16:07.958Z,100487.19
2023-03-30T03:18:10.540Z,100482.03
2023-03-30T03:20:12.135Z,100476.75
2023-03-30T03:22:13.603Z,100477.63
2023-03-30T03:24:17.661Z,100479.34
2023-03-30T03:26:20.002Z,100468.84
2023-03-30T03:28:21.483Z,100470.53
2023-03-30T03:30:23.490Z,100456.47
2023-03-30T03:32:24.940Z,100462.59
2023-03-30T03:34:31.220Z,100467.81
2023-03-30T03:36:32.964Z,100464.25
2023-03-30T03:38:34.459Z,100467.69
2023-03-30T03:40:35.941Z,100457.13
2023-03-30T03:42:37.741Z,100451.78
2023-03-30T03:44:40.558Z,100453.28
2023-03-30T03:46:42.277Z,100444.19
2023-03-30T03:48:43.779Z,100437.94
2023-03-30T03:50:45.639Z,100441.25
2023-03-30T03:52:47.123Z,100440.16
2023-03-30T03:54:48.630Z,100443.41
2023-03-30T03:56:51.974Z,100435.31
2023-03-30T03:58:53.809Z,100435.94
2023-03-30T04:01:00.254Z,100438.31
2023-03-30T04:03:02.128Z,100437.28
2023-03-30T04:05:03.814Z,100434.53
2023-03-30T04:07:05.683Z,100433.34
2023-03-30T04:09:07.309Z,100433.16
2023-03-30T04:11:12.083Z,100424.25
2023-03-30T04:13:13.670Z,100426.69
2023-03-30T04:15:15.244Z,100424.59
2023-03-30T04:17:16.800Z,100416.50
2023-03-30T04:19:18.342Z,100416.41
2023-03-30T04:21:20.181Z,100402.19
2023-03-30T04:23:22.073Z,100401.31
2023-03-30T04:25:28.902Z,100390.78
2023-03-30T04:27:30.515Z,100386.34
2023-03-30T04:29:32.762Z,100397.06
2023-03-30T04:31:35.901Z,100396.16
2023-03-30T04:33:51.891Z,100398.69
2023-03-30T04:35:53.940Z,100405.75
2023-03-30T04:37:55.463Z,100403.09
2023-03-30T04:39:58.378Z,100410.91
2023-03-30T04:42:02.622Z,100403.81
2023-03-30T04:44:07.194Z,100407.19
2023-03-30T04:46:08.745Z,100409.78
2023-03-30T04:48:10.357Z,100400.94
2023-03-30T04:50:12.073Z,100402.56
2023-03-30T04:52:13.525Z,100397.22
2023-03-30T04:54:15.446Z,100388.38
2023-03-30T04:56:17.043Z,100381.34
2023-03-30T04:58:18.602Z,100389.19
2023-03-30T05:00:20.609Z,100396.13
2023-03-30T05:02:22.233Z,100387.31
2023-03-30T05:04:24.028Z,100389.88
2023-03-30T05:06:27.164Z,100394.25
2023-03-30T05:08:28.787Z,100403.03
2023-03-30T05:10:30.525Z,100405.56
2023-03-30T05:12:32.031Z,100401.78
2023-03-30T05:14:33.561Z,100394.50
2023-03-30T05:16:35.117Z,100383.78
2023-03-30T05:18:38.772Z,100392.44
2023-03-30T05:20:40.359Z,100393.94
2023-03-30T05:22:41.839Z,100390.25
2023-03-30T05:24:43.339Z,100390.78
2023-03-30T05:26:44.793Z,100378.06
2023-03-30T05:28:47.770Z,100375.25
2023-03-30T05:30:56.124Z,100367.22
2023-03-30T05:32:57.696Z,100362.84
2023-03-30T05:34:59.249Z,100369.72
2023-03-30T05:37:01.155Z,100373.09
2023-03-30T05:39:05.172Z,100373.03
2023-03-30T05:41:07.237Z,100365.16
2023-03-30T05:43:09.487Z,100374.81
2023-03-30T05:45:11.270Z,100377.34
2023-03-30T05:47:12.803Z,100375.50
2023-03-30T05:49:14.253Z,100370.16
2023-03-30T05:51:15.913Z,100369.22
2023-03-30T05:53:17.494Z,100369.09
2023-03-30T05:55:19.456Z,100374.28
2023-03-30T05:57:21.254Z,100376.00
2023-03-30T05:59:22.778Z,100375.94
2023-03-30T06:01:26.117Z,100389.16
2023-03-30T06:03:27.817Z,100376.00
2023-03-30T06:05:29.319Z,100378.63
2023-03-30T06:07:30.818Z,100373.34
2023-03-30T06:09:32.703Z,100360.00
2023-03-30T06:11:34.205Z,100365.97
2023-03-30T06:13:35.670Z,100367.56
2023-03-30T06:15:37.116Z,100362.16
2023-03-30T06:17:39.093Z,100370.78
2023-03-30T06:19:40.629Z,100366.28
2023-03-30T06:21:42.287Z,100369.69
2023-03-30T06:23:43.769Z,100364.28
2023-03-30T06:25:46.508Z,100376.47
2023-03-30T06:27:48.058Z,100365.72
2023-03-30T06:29:49.834Z,100360.31
2023-03-30T06:31:51.433Z,100375.91
2023-03-30T06:33:52.991Z,100378.38
2023-03-30T06:35:54.691Z,100380.88
2023-03-30T06:37:56.668Z,100377.19
2023-03-30T06:39:58.323Z,100379.50
2023-03-30T06:41:59.816Z,100374.06
2023-03-30T06:44:01.407Z,100383.53
2023-03-30T06:46:03.853Z,100374.31
2023-03-30T06:48:06.524Z,100379.22
2023-03-30T06:50:08.431Z,100373.59
2023-03-30T06:52:09.957Z,100372.66
2023-03-30T06:54:11.542Z,100371.53
2023-03-30T06:56:13.136Z,100373.09
2023-03-30T06:58:14.580Z,100372.94
2023-03-30T07:00:16.599Z,100369.25
2023-03-30T07:02:18.129Z,100359.38
2023-03-30T07:04:19.707Z,100369.91
2023-03-30T07:06:21.950Z,100362.81
2023-03-30T07:08:23.405Z,100359.31
2023-03-30T07:10:24.892Z,100361.03
2023-03-30T07:12:26.542Z,100360.88
2023-03-30T07:14:28.120Z,100361.66
2023-03-30T07:16:29.667Z,100367.63
2023-03-30T07:18:31.484Z,100363.13
2023-03-30T07:20:32.925Z,100362.97
2023-03-30T07:22:35.123Z,100368.13
2023-03-30T07:24:36.599Z,100361.84
2023-03-30T07:26:38.091Z,100368.00
2023-03-30T07:28:40.468Z,100371.56
2023-03-30T07:30:42.216Z,100374.16
2023-03-30T07:32:43.775Z,100375.88
2023-03-30T07:34:46.125Z,100372.16
2023-03-30T07:36:47.675Z,100372.75
2023-03-30T07:38:49.220Z,100368.03
2023-03-30T07:40:51.526Z,100374.81
2023-03-30T07:42:52.986Z,100358.53
2023-03-30T07:44:54.494Z,100370.50
2023-03-30T07:46:56.300Z,100361.91
2023-03-30T07:48:58.122Z,100362.88
2023-03-30T07:51:02.511Z,100354.19
2023-03-30T07:53:04.185Z,100367.72
2023-03-30T07:55:05.897Z,100369.06
2023-03-30T07:57:07.471Z,100359.22
2023-03-30T07:59:10.243Z,100371.41
2023-03-30T08:01:13.278Z,100363.38
2023-03-30T08:03:15.863Z,100365.94
2023-03-30T08:05:17.906Z,100365.78
2023-03-30T08:07:19.452Z,100363.75
2023-03-30T08:09:21.056Z,100366.88
2023-03-30T08:11:22.541Z,100363.00
2023-03-30T08:13:24.338Z,100362.63
2023-03-30T08:15:26.581Z,100366.06
2023-03-30T08:17:28.691Z,100371.38
2023-03-30T08:19:30.225Z,100385.53
2023-03-30T08:21:31.753Z,100372.25
2023-03-30T08:23:33.692Z,100373.03
2023-03-30T08:27:35.479Z,100389.56
2023-03-30T08:29:36.997Z,100376.28
2023-03-30T08:31:38.615Z,100381.59
2023-03-30T08:33:40.105Z,100377.16
2023-03-30T08:35:46.200Z,100380.59
2023-03-30T08:37:47.996Z,100377.00
2023-03-30T08:39:49.469Z,100388.31
2023-03-30T08:42:12.663Z,100381.97
2023-03-30T08:44:32.273Z,100381.03
2023-03-30T08:46:34.147Z,100389.88
2023-03-30T08:48:37.988Z,100381.75
2023-03-30T08:50:39.653Z,100373.78
2023-03-30T08:52:42.477Z,100386.28
2023-03-30T08:54:43.945Z,100386.69
2023-03-30T08:57:32.663Z,100370.19
2023-03-30T08:59:55.841Z,100386.91
2023-03-30T09:02:09.332Z,100384.19
2023-03-30T09:04:19.820Z,100384.09
2023-03-30T09:06:40.005Z,100378.72
2023-03-30T09:08:41.719Z,100373.56
2023-03-30T09:10:47.806Z,100373.63
2023-03-30T09:12:52.627Z,100375.28
2023-03-30T09:14:59.807Z,100372.47
2023-03-30T09:17:07.687Z,100387.91
2023-03-30T09:19:18.527Z,100378.63
2023-03-30T09:21:25.251Z,100380.72
2023-03-30T09:23:31.966Z,100358.97
2023-03-30T09:25:46.535Z,100374.41
2023-03-30T09:27:59.879Z,100365.00
2023-03-30T09:30:15.851Z,100370.94
2023-03-30T09:32:32.017Z,100376.00
2023-03-30T09:34:39.229Z,100367.94
2023-03-30T09:36:49.706Z,100378.16
2023-03-30T09:38:52.152Z,100384.69
2023-03-30T09:41:11.091Z,100383.41
2023-03-30T09:43:46.074Z,100391.06
2023-03-30T09:45:47.676Z,100387.47
2023-03-30T09:47:49.428Z,100385.78
2023-03-30T09:49:58.813Z,100380.72
2023-03-30T09:52:06.688Z,100388.81
2023-03-30T09:54:14.594Z,100385.53
2023-03-30T09:56:39.093Z,100387.78
2023-03-30T09:58:42.696Z,100395.06
2023-03-30T10:00:45.755Z,100403.91
2023-03-30T10:02:59.046Z,100400.38
2023-03-30T10:05:03.068Z,100388.19
2023-03-30T10:07:18.080Z,100374.97
2023-03-30T10:09:24.157Z,100382.53
2023-03-30T10:11:37.622Z,100381.75
2023-03-30T10:13:43.244Z,100381.56
2023-03-30T10:15:48.482Z,100373.47
2023-03-30T10:17:54.985Z,100376.72
2023-03-30T10:20:29.744Z,100380.38
2023-03-30T10:22:31.517Z,100371.34
2023-03-30T10:24:33.411Z,100376.84
2023-03-30T10:26:37.911Z,100372.50
2023-03-30T10:28:41.247Z,100369.56
2023-03-30T10:30:50.799Z,100373.72
2023-03-30T10:32:54.220Z,100388.22
2023-03-30T10:35:01.700Z,100388.75
2023-03-30T10:37:26.025Z,100398.91
2023-03-30T10:39:33.621Z,100415.72
2023-03-30T10:41:38.072Z,100435.09
2023-03-30T10:43:42.019Z,100436.84
2023-03-30T10:45:51.033Z,100433.91
2023-03-30T10:48:21.120Z,100434.50
2023-03-30T10:50:40.963Z,100438.84
2023-03-30T10:52:56.305Z,100446.34
2023-03-30T10:55:39.167Z,100441.31
2023-03-30T10:57:57.599Z,100441.47
2023-03-30T11:00:19.085Z,100452.00
2023-03-30T11:02:59.115Z,100437.59
2023-03-30T11:05:35.677Z,100429.56
2023-03-30T11:07:43.033Z,100450.06
2023-03-30T11:09:53.307Z,100448.41
2023-03-30T11:12:01.543Z,100440.38
2023-03-30T11:14:09.164Z,100449.44
2023-03-30T11:16:20.814Z,100444.88
2023-03-30T11:18:29.008Z,100445.25
2023-03-30T11:20:51.130Z,100445.19
2023-03-30T11:23:14.831Z,100453.66
2023-03-30T11:25:29.721Z,100443.47
2023-03-30T11:27:39.605Z,100444.63
2023-03-30T11:30:19.322Z,100439.25
2023-03-30T11:32:24.898Z,100435.03
2023-03-30T11:34:33.483Z,100437.53
2023-03-30T11:36:44.434Z,100438.78
2023-03-30T11:38:49.061Z,100434.81
2023-03-30T11:40:57.610Z,100444.66
2023-03-30T11:42:59.161Z,100440.53
2023-03-30T11:45:02.714Z,100441.38
2023-03-30T11:47:32.954Z,100445.50
2023-03-30T11:49:43.226Z,100444.75
2023-03-30T11:51:56.499Z,100447.66
2023-03-30T11:54:09.147Z,100449.72
2023-03-30T11:56:26.092Z,100442.41
2023-03-30T11:58:34.551Z,100455.72
2023-03-30T12:01:05.243Z,100456.00
2023-03-30T12:03:13.009Z,100453.97
2023-03-30T12:05:38.377Z,100453.31
2023-03-30T12:08:17.530Z,100447.06
2023-03-30T12:10:28.465Z,100452.34
2023-03-30T12:12:34.585Z,100459.34
2023-03-30T12:14:43.335Z,100450.56
2023-03-30T12:16:51.435Z,100458.69
2023-03-30T12:19:24.815Z,100453.69
2023-03-30T12:21:30.720Z,100461.09
2023-03-30T12:23:55.121Z,100458.25
2023-03-30T12:26:08.208Z,100464.50
2023-03-30T12:28:16.441Z,100468.78
2023-03-30T12:30:27.001Z,100474.63
2023-03-30T12:32:29.677Z,100471.75
2023-03-30T12:34:36.487Z,100475.28
2023-03-30T12:36:41.024Z,100485.94
2023-03-30T12:38:46.513Z,100488.56
2023-03-30T12:41:14.143Z,100475.44
2023-03-30T12:43:29.565Z,100468.97
2023-03-30T12:45:33.541Z,100464.75
2023-03-30T12:47:56.992Z,100452.56
2023-03-30T12:50:09.798Z,100457.06
2023-03-30T12:52:52.873Z,100465.75
2023-03-30T12:55:19.086Z,100469.16
2023-03-30T12:57:48.222Z,100447.63
2023-03-30T13:00:08.562Z,100453.63
2023-03-30T13:02:38.846Z,100454.25
2023-03-30T13:04:44.069Z,100462.91
2023-03-30T13:06:51.950Z,100461.16
2023-03-30T13:08:55.783Z,100449.34
2023-03-30T13:11:19.739Z,100447.19
2023-03-30T13:13:53.028Z,100448.94
2023-03-30T13:15:54.879Z,100452.38
2023-03-30T13:17:56.933Z,100450.16
2023-03-30T13:20:29.690Z,100445.88
2023-03-30T13:22:32.689Z,100452.63
2023-03-30T13:24:34.092Z,100450.91
2023-03-30T13:26:44.553Z,100450.31
2023-03-30T13:28:55.051Z,100449.53
2023-03-30T13:31:16.874Z,100445.94
2023-03-30T13:33:23.325Z,100445.25
2023-03-30T13:35:32.415Z,100442.50
2023-03-30T13:37:52.984Z,100445.59
2023-03-30T13:40:07.563Z,100449.28
2023-03-30T13:42:38.033Z,100454.69
2023-03-30T13:45:24.276Z,100441.66
2023-03-30T13:47:47.346Z,100439.47
2023-03-30T13:50:21.120Z,100435.13
2023-03-30T13:52:38.728Z,100441.31
2023-03-30T13:54:41.796Z,100448.78
2023-03-30T13:56:48.541Z,100429.78
2023-03-30T13:59:06.462Z,100445.19
2023-03-30T14:01:14.087Z,100445.69
2023-03-30T14:03:34.202Z,100450.50
2023-03-30T14:05:38.702Z,100443.13
2023-03-30T14:07:43.619Z,100448.28
2023-03-30T14:10:09.485Z,100438.53
2023-03-30T14:12:13.783Z,100444.88
2023-03-30T14:14:31.126Z,100445.97
2023-03-30T14:16:38.755Z,100449.22
2023-03-30T14:18:40.555Z,100457.66
2023-03-30T14:20:57.621Z,100455.09
2023-03-30T14:23:00.555Z,100460.56
2023-03-30T14:25:05.051Z,100458.28
2023-03-30T14:27:14.943Z,100460.63
2023-03-30T14:29:30.384Z,100460.03
2023-03-30T14:31:40.757Z,100466.03
2023-03-30T14:33:42.337Z,100467.31
2023-03-30T14:35:47.188Z,100462.59
2023-03-30T14:37:52.389Z,100463.88
2023-03-30T14:39:57.687Z,100453.03
2023-03-30T14:42:09.036Z,100444.41
2023-03-30T14:44:13.776Z,100448.00
2023-03-30T14:46:15.458Z,100448.31
2023-03-30T14:48:32.968Z,100451.91
2023-03-30T14:50:36.785Z,100447.84
2023-03-30T14:52:41.002Z,100459.28
2023-03-30T14:54:54.269Z,100465.97
2023-03-30T14:57:07.335Z,100472.25
2023-03-30T14:59:12.060Z,100461.69
2023-03-30T15:01:18.356Z,100462.41
2023-03-30T15:03:32.920Z,100453.25
2023-03-30T15:05:42.835Z,100461.28
2023-03-30T15:07:46.961Z,100457.00
2023-03-30T15:09:55.019Z,100453.91
2023-03-30T15:12:01.930Z,100461.31
2023-03-30T15:14:08.418Z,100448.47
2023-03-30T15:16:15.610Z,100456.13
2023-03-30T15:18:22.134Z,100459.41
2023-03-30T15:20:26.987Z,100457.53
2023-03-30T15:22:36.080Z,100449.72
2023-03-30T15:24:40.166Z,100455.41
2023-03-30T15:26:47.411Z,100445.94
2023-03-30T15:28:52.913Z,100451.34
2023-03-30T15:30:54.623Z,100453.50
2023-03-30T15:32:57.701Z,100453.25
2023-03-30T15:35:14.249Z,100448.66
2023-03-30T15:37:23.190Z,100444.91
2023-03-30T15:39:34.081Z,100450.31
2023-03-30T15:42:11.368Z,100452.38
2023-03-30T15:44:21.166Z,100447.84
2023-03-30T15:46:23.575Z,100465.56
2023-03-30T15:48:34.922Z,100448.56
2023-03-30T15:50:37.189Z,100443.53
2023-03-30T15:52:43.150Z,100460.53
2023-03-30T15:54:50.611Z,100463.63
2023-03-30T15:57:08.460Z,100465.69
2023-03-30T15:59:19.663Z,100457.88
2023-03-30T16:01:23.268Z,100461.13
2023-03-30T16:03:39.379Z,100459.22
2023-03-30T16:05:41.503Z,100461.28
2023-03-30T16:07:42.972Z,100459.94
2023-03-30T16:09:45.239Z,100459.56
2023-03-30T16:11:47.182Z,100461.78
2023-03-30T16:13:49.228Z,100459.44
2023-03-30T16:15:51.770Z,100458.56
2023-03-30T16:17:53.334Z,100458.94
2023-03-30T16:19:54.859Z,100450.19
2023-03-30T16:21:56.334Z,100450.34
2023-03-30T16:23:57.785Z,100454.44
2023-03-30T16:25:59.399Z,100453.91
2023-03-30T16:28:00.875Z,100457.94
2023-03-30T16:30:16.280Z,100452.09
2023-03-30T16:32:17.760Z,100467.31
2023-03-30T16:34:20.325Z,100464.66
2023-03-30T16:36:24.691Z,100454.13
2023-03-30T16:38:26.295Z,100458.03
2023-03-30T16:40:33.875Z,100462.97
2023-03-30T16:42:35.325Z,100465.94
2023-03-30T16:44:36.836Z,100452.84
2023-03-30T16:46:39.250Z,100463.56
2023-03-30T16:48:41.954Z,100458.41
2023-03-30T16:50:50.730Z,100468.69
2023-03-30T16:52:52.498Z,100459.44
2023-03-30T16:54:53.934Z,100468.66
2023-03-30T16:56:55.669Z,100462.63
2023-03-30T16:58:57.230Z,100479.66
2023-03-30T17:01:04.159Z,100468.56
2023-03-30T17:03:06.051Z,100468.72
2023-03-30T17:05:07.912Z,100471.66
2023-03-30T17:07:09.526Z,100472.00
2023-03-30T17:09:19.288Z,100475.16
2023-03-30T17:11:20.848Z,100479.13
2023-03-30T17:13:23.818Z,100478.69
2023-03-30T17:15:26.339Z,100482.50
2023-03-30T17:17:27.833Z,100477.38
2023-03-30T17:19:29.331Z,100484.59
2023-03-30T17:21:31.396Z,100484.72
2023-03-30T17:23:33.377Z,100488.50
2023-03-30T17:25:36.196Z,100497.47
2023-03-30T17:27:38.041Z,100495.84
2023-03-30T17:29:40.374Z,100507.38
2023-03-30T17:31:45.724Z,100499.63
2023-03-30T17:33:48.570Z,100497.03
2023-03-30T17:36:13.242Z,100500.59
2023-03-30T17:38:16.288Z,100498.75
2023-03-30T17:40:20.743Z,100499.69
2023-03-30T17:42:22.220Z,100499.69
2023-03-30T17:44:23.675Z,100497.16
2023-03-30T17:46:25.443Z,100505.25
2023-03-30T17:48:27.121Z,100507.03
2023-03-30T17:50:34.959Z,100512.28
2023-03-30T17:52:36.525Z,100520.22
2023-03-30T17:54:38.175Z,100509.63
2023-03-30T17:56:39.683Z,100514.91
2023-03-30T17:58:41.192Z,100513.19
2023-03-30T18:00:42.723Z,100514.13
2023-03-30T18:02:44.725Z,100517.75
2023-03-30T18:04:46.213Z,100515.19
2023-03-30T18:06:48.780Z,100510.81
2023-03-30T18:08:50.238Z,100519.69
2023-03-30T18:10:56.971Z,100521.41
2023-03-30T18:12:58.523Z,100517.91
2023-03-30T18:14:59.976Z,100503.91
2023-03-30T18:17:07.068Z,100514.72
2023-03-30T18:19:10.933Z,100521.06
2023-03-30T18:21:12.403Z,100516.81
2023-03-30T18:23:13.858Z,100522.25
2023-03-30T18:25:29.442Z,100517.88
2023-03-30T18:27:34.174Z,100522.47
2023-03-30T18:29:37.080Z,100526.03
2023-03-30T18:31:38.682Z,100527.03
2023-03-30T18:33:40.301Z,100516.56
2023-03-30T18:35:42.835Z,100522.84
2023-03-30T18:37:45.000Z,100524.63
2023-03-30T18:39:46.954Z,100522.13
2023-03-30T18:41:49.396Z,100527.47
2023-03-30T18:43:50.968Z,100529.19
2023-03-30T18:45:52.867Z,100528.47
2023-03-30T18:47:55.909Z,100530.25
2023-03-30T18:49:57.526Z,100528.53
2023-03-30T18:51:58.969Z,100532.16
2023-03-30T18:54:00.504Z,100536.66
2023-03-30T18:56:03.454Z,100536.59
2023-03-30T18:58:11.320Z,100536.66
2023-03-30T19:00:22.897Z,100536.66
2023-03-30T19:02:24.456Z,100537.38
2023-03-30T19:04:26.057Z,100539.97
2023-03-30T19:06:28.482Z,100545.28
2023-03-30T19:08:30.004Z,100535.72
2023-03-30T19:10:36.424Z,100534.00
2023-03-30T19:12:38.498Z,100538.63
2023-03-30T19:14:40.076Z,100542.19
2023-03-30T19:16:41.936Z,100532.66
2023-03-30T19:18:43.556Z,100541.41
2023-03-30T19:20:46.001Z,100545.72
2023-03-30T19:22:47.929Z,100540.09
2023-03-30T19:24:49.398Z,100539.13
2023-03-30T19:26:50.874Z,100532.97
2023-03-30T19:28:52.333Z,100535.53
2023-03-30T19:30:53.819Z,100539.19
2023-03-30T19:32:58.096Z,100541.03
2023-03-30T19:34:59.850Z,100535.91
2023-03-30T19:37:01.281Z,100534.19
2023-03-30T19:39:02.801Z,100541.34
2023-03-30T19:41:05.041Z,100538.75
2023-03-30T19:43:07.718Z,100537.03
2023-03-30T19:45:09.323Z,100539.00
2023-03-30T19:47:10.779Z,100549.84
2023-03-30T19:49:12.205Z,100548.31
2023-03-30T19:51:13.728Z,100545.09
2023-03-30T19:53:15.776Z,100549.81
2023-03-30T19:55:19.192Z,100553.63
2023-03-30T19:57:21.357Z,100550.25
2023-03-30T19:59:22.881Z,100552.09
2023-03-30T20:01:24.399Z,100552.00
2023-03-30T20:03:26.718Z,100550.19
2023-03-30T20:05:28.376Z,100543.97
2023-03-30T20:07:29.958Z,100546.63
2023-03-30T20:09:32.326Z,100543.09
2023-03-30T20:11:33.824Z,100541.47
2023-03-30T20:13:36.055Z,100542.59
2023-03-30T20:15:37.513Z,100544.44
2023-03-30T20:17:39.778Z,100540.19
2023-03-30T20:19:42.706Z,100537.69
2023-03-30T20:21:44.257Z,100536.22
2023-03-30T20:23:46.133Z,100537.25
2023-03-30T20:25:49.446Z,100525.84
2023-03-30T20:27:51.086Z,100526.94
2023-03-30T20:29:52.776Z,100534.75
2023-03-30T20:31:54.354Z,100526.88
2023-03-30T20:33:56.105Z,100523.44
2023-03-30T20:35:58.647Z,100521.78
2023-03-30T20:38:02.244Z,100520.97
2023-03-30T20:40:09.777Z,100517.47
2023-03-30T20:42:11.382Z,100513.09
2023-03-30T20:44:12.855Z,100510.44
2023-03-30T20:46:17.428Z,100512.19
2023-03-30T20:48:30.165Z,100506.91
2023-03-30T20:50:33.817Z,100509.47
2023-03-30T20:52:35.293Z,100511.19
2023-03-30T20:54:37.725Z,100502.34
2023-03-30T20:56:39.377Z,100507.63
2023-03-30T20:58:41.070Z,100501.38
2023-03-30T21:00:42.526Z,100503.09
2023-03-30T21:02:43.990Z,100502.28
2023-03-30T21:04:46.114Z,100500.41
2023-03-30T21:06:47.737Z,100495.91
2023-03-30T21:08:58.323Z,100495.06
2023-03-30T21:11:00.649Z,100494.31
2023-03-30T21:13:02.153Z,100492.53
2023-03-30T21:15:03.791Z,100497.69
2023-03-30T21:17:05.661Z,100486.28
2023-03-30T21:19:07.979Z,100493.44
2023-03-30T21:21:09.784Z,100488.91
2023-03-30T21:23:11.397Z,100481.09
2023-03-30T21:25:13.930Z,100482.06
2023-03-30T21:27:15.643Z,100484.53
2023-03-30T21:29:18.076Z,100479.25
2023-03-30T21:31:19.544Z,100482.94
2023-03-30T21:33:21.060Z,100482.88
2023-03-30T21:35:22.618Z,100490.63
2023-03-30T21:37:24.302Z,100483.56
2023-03-30T21:39:26.000Z,100484.53
2023-03-30T21:41:28.832Z,100485.63
2023-03-30T21:43:35.832Z,100482.94
2023-03-30T21:45:37.259Z,100476.72
2023-03-30T21:47:39.451Z,100476.72
2023-03-30T21:49:40.945Z,100482.88
2023-03-30T21:51:42.392Z,100483.69
2023-03-30T21:53:46.201Z,100483.69
2023-03-30T21:55:48.166Z,100481.16
2023-03-30T21:57:49.637Z,100480.34
2023-03-30T21:59:51.142Z,100483.09
2023-03-30T22:01:52.646Z,100479.66
2023-03-30T22:03:55.464Z,100476.16
2023-03-30T22:05:59.045Z,100479.78
2023-03-30T22:08:01.607Z,100484.19
2023-03-30T22:10:03.612Z,100485.06
2023-03-30T22:12:05.297Z,100485.06
2023-03-30T22:14:06.832Z,100477.00
2023-03-30T22:16:16.239Z,100471.69
2023-03-30T22:18:17.759Z,100473.28
2023-03-30T22:20:19.265Z,100478.63
2023-03-30T22:22:20.712Z,100474.16
2023-03-30T22:24:22.178Z,100469.72
2023-03-30T22:26:23.678Z,100482.00
2023-03-30T22:28:26.067Z,100479.38
2023-03-30T22:30:27.646Z,100474.94
2023-03-30T22:32:29.320Z,100470.41
2023-03-30T22:34:31.683Z,100464.16
2023-03-30T22:36:33.901Z,100465.94
2023-03-30T22:38:35.592Z,100465.06
2023-03-30T22:40:39.377Z,100459.72
2023-03-30T22:42:40.830Z,100455.28
2023-03-30T22:44:42.403Z,100453.56
2023-03-30T22:46:43.847Z,100457.94
2023-03-30T22:48:45.402Z,100450.97
2023-03-30T22:50:46.933Z,100451.03
2023-03-30T22:52:48.371Z,100455.41
2023-03-30T22:54:49.818Z,100445.88
2023-03-30T22:56:51.342Z,100448.63
2023-03-30T22:58:52.962Z,100444.31
2023-03-30T23:01:01.146Z,100448.75
2023-03-30T23:03:02.920Z,100440.88
2023-03-30T23:05:07.325Z,100438.28
2023-03-30T23:07:09.167Z,100446.28
2023-03-30T23:09:13.460Z,100444.50
2023-03-30T23:11:15.022Z,100440.94
2023-03-30T23:13:16.894Z,100437.50
2023-03-30T23:15:18.637Z,100443.47
2023-03-30T23:17:20.234Z,100440.75
2023-03-30T23:19:21.689Z,100437.13
2023-03-30T23:21:23.120Z,100439.84
2023-03-30T23:23:24.950Z,100435.34
2023-03-30T23:25:26.567Z,100434.44
2023-03-30T23:27:28.111Z,100424.78
2023-03-30T23:29:29.561Z,100422.19
2023-03-30T23:31:31.690Z,100416.06
2023-03-30T23:33:33.357Z,100420.47
2023-03-30T23:35:34.836Z,100421.47
2023-03-30T23:37:36.960Z,100426.81
2023-03-30T23:39:38.715Z,100416.19
2023-03-30T23:41:40.596Z,100422.44
2023-03-30T23:43:42.173Z,100417.22
2023-03-30T23:45:43.728Z,100415.44
2023-03-30T23:47:45.449Z,100411.94
2023-03-30T23:49:46.910Z,100411.06
2023-03-30T23:51:48.660Z,100417.25
2023-03-30T23:53:54.339Z,100414.59
2023-03-30T23:55:56.240Z,100414.56
2023-03-30T23:57:57.720Z,100415.50
2023-03-30T23:59:59.190Z,100412.00
